Time;durP1;ratioP1;P1;durP2;ratioP2;P2;SDS_P1;SDS_P2;PMS_P1;PMS_P2;Temp;Humidity;BMP_temperature;BMP_pressure;BME280_temperature;BME280_humidity;BME280_pressure;Samples;Min_cycle;Max_cycle;Signal;HPM_P1;HPM_P2
2023/08/23 00:03:52;;;;;;;4.10;3.80;;;25.00;99.90;;;;;;10423516;28;20217;-78
2023/08/23 00:08:56;;;;;;;5.50;4.90;;;24.90;99.90;;;;;;10397778;28;20313;-79
2023/08/23 00:13:58;;;;;;;5.30;4.90;;;24.90;99.90;;;;;;10399153;28;20210;-78
2023/08/23 00:19:00;;;;;;;5.00;4.60;;;24.80;99.90;;;;;;10418647;28;20226;-78
2023/08/23 00:24:04;;;;;;;5.20;4.70;;;24.80;99.90;;;;;;10417380;28;20190;-79
2023/08/23 00:29:06;;;;;;;5.43;5.13;;;24.70;99.90;;;;;;10394308;28;20281;-77
2023/08/23 00:34:08;;;;;;;5.47;5.00;;;24.60;99.90;;;;;;10384444;28;20228;-77
2023/08/23 00:39:11;;;;;;;4.93;4.63;;;24.70;99.90;;;;;;10374789;28;20233;-77
2023/08/23 00:44:13;;;;;;;5.50;5.10;;;24.60;99.90;;;;;;10391824;28;20209;-78
2023/08/23 00:49:20;;;;;;;5.87;5.33;;;24.60;99.90;;;;;;10414940;28;20241;-77
2023/08/23 00:54:23;;;;;;;5.57;5.10;;;24.60;99.90;;;;;;10392396;28;20237;-78
2023/08/23 00:59:25;;;;;;;5.57;5.23;;;24.50;99.90;;;;;;10410879;28;20249;-76
2023/08/23 01:04:28;;;;;;;5.37;4.97;;;24.40;99.90;;;;;;10410357;28;20230;-76
2023/08/23 01:09:42;;;;;;;7.30;6.17;;;24.40;99.90;;;;;;10412132;28;20249;-78
2023/08/23 01:14:51;;;;;;;5.90;5.53;;;24.30;99.90;;;;;;10396717;28;20316;-80
2023/08/23 01:19:54;;;;;;;5.90;5.50;;;24.30;99.90;;;;;;10417508;28;20316;-78
2023/08/23 01:24:58;;;;;;;5.07;4.77;;;24.30;99.90;;;;;;10415890;28;20660;-79
2023/08/23 01:30:00;;;;;;;6.30;5.80;;;24.20;99.90;;;;;;10394357;28;20202;-79
2023/08/23 01:35:10;;;;;;;5.80;5.40;;;24.20;99.90;;;;;;10405632;28;20261;-80
2023/08/23 01:40:14;;;;;;;6.20;5.80;;;24.20;99.90;;;;;;10385620;28;20271;-80
2023/08/23 01:45:16;;;;;;;6.30;5.90;;;24.10;99.90;;;;;;10399758;28;20280;-78
2023/08/23 01:50:18;;;;;;;6.00;5.60;;;24.10;99.90;;;;;;10407355;28;20677;-78
2023/08/23 01:55:22;;;;;;;6.20;5.70;;;24.10;99.90;;;;;;10424249;28;20222;-78
2023/08/23 02:00:24;;;;;;;6.30;5.80;;;24.00;99.90;;;;;;10425226;28;20279;-79
2023/08/23 02:05:30;;;;;;;6.30;5.80;;;24.00;99.90;;;;;;10397963;28;20259;-79
2023/08/23 02:10:36;;;;;;;6.30;5.90;;;24.10;99.90;;;;;;10424960;28;20714;-78
2023/08/23 02:15:38;;;;;;;5.80;5.40;;;24.00;99.90;;;;;;10404569;28;20230;-79
2023/08/23 02:20:40;;;;;;;7.20;6.10;;;24.00;99.90;;;;;;10427003;28;20226;-79
2023/08/23 02:25:43;;;;;;;6.50;6.00;;;24.00;99.90;;;;;;10427026;28;20230;-80
2023/08/23 02:30:46;;;;;;;5.70;5.30;;;24.00;99.90;;;;;;10409922;28;20210;-79
2023/08/23 02:35:48;;;;;;;7.00;6.40;;;23.90;99.90;;;;;;10429935;28;20223;-79
2023/08/23 02:40:52;;;;;;;6.97;6.50;;;23.90;99.90;;;;;;10402351;28;20227;-80
2023/08/23 02:45:54;;;;;;;7.83;5.90;;;23.90;99.90;;;;;;10410970;28;20234;-79
2023/08/23 02:50:56;;;;;;;7.27;6.77;;;23.80;99.90;;;;;;10407675;28;20221;-79
2023/08/23 02:55:59;;;;;;;6.90;6.33;;;23.80;99.90;;;;;;10425646;28;20226;-80
2023/08/23 03:01:02;;;;;;;7.00;6.27;;;23.80;99.90;;;;;;10409302;28;20217;-80
2023/08/23 03:06:06;;;;;;;7.30;6.60;;;23.80;99.90;;;;;;10429211;28;20253;-78
2023/08/23 03:11:09;;;;;;;7.17;6.60;;;23.80;99.90;;;;;;10431002;28;20278;-79
2023/08/23 03:16:13;;;;;;;7.03;6.43;;;23.70;99.90;;;;;;10432529;28;20260;-77
2023/08/23 03:21:15;;;;;;;7.17;6.57;;;23.70;99.90;;;;;;10411526;28;20241;-78
2023/08/23 03:26:19;;;;;;;7.27;6.57;;;23.60;99.90;;;;;;10411541;28;20273;-78
2023/08/23 03:31:23;;;;;;;7.33;6.73;;;23.60;99.90;;;;;;10398587;28;20225;-77
2023/08/23 03:36:25;;;;;;;7.77;7.07;;;23.60;99.90;;;;;;10383056;28;20226;-78
2023/08/23 03:41:29;;;;;;;7.60;6.83;;;23.60;99.90;;;;;;10401420;28;20280;-79
2023/08/23 03:46:31;;;;;;;6.50;6.00;;;23.50;99.90;;;;;;10404063;28;20256;-79
2023/08/23 03:51:33;;;;;;;6.90;6.30;;;23.50;99.90;;;;;;10420571;28;20226;-79
2023/08/23 03:56:36;;;;;;;7.63;7.03;;;23.50;99.90;;;;;;10390317;28;20241;-79
2023/08/23 04:01:38;;;;;;;7.40;6.70;;;23.50;99.90;;;;;;10411521;28;20387;-79
2023/08/23 04:06:41;;;;;;;6.90;6.20;;;23.40;99.90;;;;;;10399864;28;20234;-79
2023/08/23 04:11:45;;;;;;;7.47;6.77;;;23.40;99.90;;;;;;10417528;28;20238;-79
2023/08/23 04:16:47;;;;;;;6.40;6.00;;;23.40;99.90;;;;;;10395598;28;20304;-79
2023/08/23 04:21:49;;;;;;;7.87;7.10;;;23.30;99.90;;;;;;10404836;28;20223;-78
2023/08/23 04:26:52;;;;;;;7.90;7.20;;;23.30;99.90;;;;;;10401005;28;20249;-79
2023/08/23 04:31:54;;;;;;;7.10;6.60;;;23.30;99.90;;;;;;10418316;28;20207;-78
2023/08/23 04:37:04;;;;;;;6.97;6.47;;;23.30;99.90;;;;;;10396380;28;20240;-79
2023/08/23 04:42:08;;;;;;;7.40;6.80;;;23.20;99.90;;;;;;10398141;28;20218;-79
2023/08/23 04:47:10;;;;;;;6.30;5.90;;;23.20;99.90;;;;;;10391810;28;20315;-77
2023/08/23 04:52:13;;;;;;;7.33;6.50;;;23.20;99.90;;;;;;10398135;28;20202;-78
2023/08/23 04:57:17;;;;;;;7.30;6.70;;;23.30;99.90;;;;;;10397783;28;20230;-79
2023/08/23 05:02:19;;;;;;;7.33;6.73;;;23.30;99.90;;;;;;10401587;28;20230;-78
2023/08/23 05:07:24;;;;;;;6.90;6.33;;;23.30;99.90;;;;;;10446400;22;20727;-78
2023/08/23 05:12:27;;;;;;;7.07;6.30;;;23.30;99.90;;;;;;10455122;28;20196;-78
2023/08/23 05:17:30;;;;;;;7.13;6.43;;;23.30;99.90;;;;;;10422183;28;20229;-78
2023/08/23 05:22:32;;;;;;;8.13;6.77;;;23.30;99.90;;;;;;10450847;28;20261;-78
2023/08/23 05:27:35;;;;;;;7.83;7.27;;;23.30;99.90;;;;;;10438268;28;20888;-78
2023/08/23 05:32:37;;;;;;;7.63;7.03;;;23.40;99.90;;;;;;10448229;28;20201;-78
2023/08/23 05:37:39;;;;;;;7.73;7.23;;;23.40;99.90;;;;;;10436002;28;20221;-78
2023/08/23 05:42:44;;;;;;;8.20;7.40;;;23.50;99.90;;;;;;10454693;28;20232;-78
2023/08/23 05:47:46;;;;;;;8.67;7.00;;;23.50;99.90;;;;;;10437089;28;20364;-80
2023/08/23 05:52:49;;;;;;;7.03;6.53;;;23.50;99.90;;;;;;10435739;28;20207;-78
2023/08/23 05:57:52;;;;;;;8.07;6.87;;;23.50;99.90;;;;;;10452018;28;20270;-78
2023/08/23 06:02:54;;;;;;;6.23;5.80;;;23.60;99.90;;;;;;10451016;28;20232;-78
2023/08/23 06:07:56;;;;;;;7.60;6.80;;;23.60;99.90;;;;;;10453127;28;20435;-78
2023/08/23 06:13:00;;;;;;;8.87;6.80;;;23.70;99.90;;;;;;10453900;28;20201;-78
2023/08/23 06:18:02;;;;;;;6.70;6.20;;;23.80;99.90;;;;;;10452842;28;20237;-78
2023/08/23 06:23:05;;;;;;;8.00;7.23;;;23.80;99.90;;;;;;10452410;28;20229;-78
2023/08/23 06:28:08;;;;;;;7.80;7.10;;;23.90;99.90;;;;;;10453734;28;20221;-78
2023/08/23 06:33:10;;;;;;;7.20;6.70;;;24.00;99.90;;;;;;10434059;28;20731;-78
2023/08/23 06:38:15;;;;;;;8.70;7.30;;;24.10;99.90;;;;;;10450487;28;20221;-78
2023/08/23 06:43:19;;;;;;;6.87;6.37;;;24.20;99.90;;;;;;10452050;28;20291;-78
2023/08/23 06:48:21;;;;;;;6.90;6.23;;;24.20;99.90;;;;;;10451743;28;20217;-78
2023/08/23 06:53:23;;;;;;;7.57;6.97;;;24.30;99.90;;;;;;10451402;28;20280;-78
2023/08/23 06:58:27;;;;;;;7.10;6.50;;;24.40;99.90;;;;;;10452142;28;20309;-78
2023/08/23 07:03:29;;;;;;;7.47;6.70;;;24.40;99.90;;;;;;10451212;28;20222;-79
2023/08/23 07:08:31;;;;;;;6.90;6.30;;;24.50;99.90;;;;;;10433120;28;20240;-80
2023/08/23 07:13:36;;;;;;;7.67;6.87;;;24.60;99.90;;;;;;10450728;28;20198;-78
2023/08/23 07:18:38;;;;;;;7.97;7.20;;;24.60;99.90;;;;;;10451920;28;20829;-78
2023/08/23 07:23:40;;;;;;;7.70;7.00;;;24.70;99.90;;;;;;10444625;28;20593;-79
2023/08/23 07:28:43;;;;;;;7.77;7.07;;;24.80;99.90;;;;;;10450676;28;20222;-78
2023/08/23 07:33:45;;;;;;;8.27;7.57;;;24.80;99.90;;;;;;10448994;28;20229;-79
2023/08/23 07:38:47;;;;;;;8.00;7.30;;;24.90;99.90;;;;;;10448354;28;20370;-80
2023/08/23 07:43:51;;;;;;;7.17;6.47;;;25.00;99.90;;;;;;10450111;28;20625;-78
2023/08/23 07:48:53;;;;;;;7.70;7.00;;;25.10;99.90;;;;;;10450191;28;20352;-78
2023/08/23 07:53:55;;;;;;;10.93;7.77;;;25.30;99.90;;;;;;10449414;28;20248;-80
2023/08/23 07:58:59;;;;;;;8.27;7.47;;;25.50;99.90;;;;;;10449506;28;20257;-80
2023/08/23 08:04:01;;;;;;;6.10;5.60;;;25.60;99.90;;;;;;10431887;28;20759;-78
2023/08/23 08:09:03;;;;;;;7.50;6.90;;;25.80;99.90;;;;;;10449654;28;20240;-77
2023/08/23 08:14:06;;;;;;;8.17;7.47;;;26.00;99.90;;;;;;10449787;28;20711;-79
2023/08/23 08:19:08;;;;;;;7.33;6.57;;;26.10;99.90;;;;;;10449803;28;20603;-79
2023/08/23 08:24:11;;;;;;;11.70;6.67;;;26.50;99.90;;;;;;10430612;28;20217;-79
2023/08/23 08:29:14;;;;;;;7.40;6.37;;;26.70;99.90;;;;;;10449913;28;20599;-79
2023/08/23 08:34:16;;;;;;;11.03;7.30;;;26.80;99.90;;;;;;10431354;28;20201;-79
2023/08/23 08:39:18;;;;;;;8.17;7.40;;;26.90;99.90;;;;;;10448558;28;20307;-79
2023/08/23 08:44:23;;;;;;;6.33;5.80;;;26.90;99.90;;;;;;10450908;28;20201;-78
2023/08/23 08:49:25;;;;;;;7.73;7.10;;;26.90;99.90;;;;;;10449477;28;20360;-78
2023/08/23 08:54:30;;;;;;;7.03;6.53;;;27.00;99.90;;;;;;10450354;28;20314;-79
2023/08/23 08:59:36;;;;;;;7.17;6.50;;;27.10;99.20;;;;;;10449718;28;20228;-79
2023/08/23 09:04:38;;;;;;;6.33;5.87;;;27.10;98.60;;;;;;10430932;28;20209;-80
2023/08/23 09:09:41;;;;;;;6.97;6.27;;;27.20;99.40;;;;;;10450151;28;20236;-80
2023/08/23 09:14:49;;;;;;;7.50;6.17;;;27.30;99.20;;;;;;10447318;28;20296;-79
2023/08/23 09:19:52;;;;;;;6.50;5.90;;;27.30;97.70;;;;;;10447199;28;20225;-79
2023/08/23 09:24:55;;;;;;;7.17;6.47;;;27.30;98.10;;;;;;10448554;28;20206;-79
2023/08/23 09:30:00;;;;;;;8.20;5.80;;;27.30;98.20;;;;;;10447134;28;20236;-79
2023/08/23 09:35:12;;;;;;;6.30;5.70;;;27.40;97.70;;;;;;10449617;28;20304;-79
2023/08/23 09:40:18;;;;;;;7.33;6.63;;;27.60;97.40;;;;;;10450405;28;20368;-79
2023/08/23 09:45:22;;;;;;;7.00;6.40;;;27.90;97.90;;;;;;10423536;28;20855;-79
2023/08/23 09:50:26;;;;;;;7.00;6.40;;;28.20;97.00;;;;;;10446400;28;20716;-79
2023/08/23 09:55:29;;;;;;;7.83;6.30;;;28.50;96.70;;;;;;10441809;28;20315;-79
2023/08/23 10:00:34;;;;;;;7.60;6.90;;;28.80;97.00;;;;;;10455623;28;20271;-79
2023/08/23 10:05:36;;;;;;;6.73;6.13;;;29.10;95.10;;;;;;10457259;28;20217;-77
2023/08/23 10:10:40;;;;;;;6.80;6.20;;;29.50;95.30;;;;;;10456504;28;20476;-79
2023/08/23 10:15:44;;;;;;;6.53;5.97;;;29.70;95.10;;;;;;10435136;28;20222;-79
2023/08/23 10:20:46;;;;;;;6.50;6.00;;;29.80;94.60;;;;;;10455047;28;20229;-79
2023/08/23 10:25:49;;;;;;;6.80;6.20;;;29.80;93.70;;;;;;10456103;28;20224;-79
2023/08/23 10:30:53;;;;;;;6.33;5.83;;;29.60;94.80;;;;;;10452035;28;20738;-79
2023/08/23 10:35:56;;;;;;;7.13;6.63;;;29.40;95.50;;;;;;10452051;28;20307;-79
2023/08/23 10:41:00;;;;;;;6.37;5.97;;;29.10;95.00;;;;;;10431147;28;20291;-79
2023/08/23 10:46:06;;;;;;;6.27;5.77;;;28.90;93.40;;;;;;10451324;28;20705;-79
2023/08/23 10:51:08;;;;;;;6.70;6.03;;;28.80;94.10;;;;;;10450209;28;20205;-79
2023/08/23 10:56:11;;;;;;;8.07;5.47;;;28.70;94.90;;;;;;10431483;28;20222;-79
2023/08/23 11:01:14;;;;;;;5.30;4.80;;;28.70;95.00;;;;;;10433669;28;20218;-79
2023/08/23 11:06:16;;;;;;;5.40;5.00;;;28.60;95.30;;;;;;10453582;28;20336;-79
2023/08/23 11:11:19;;;;;;;6.33;5.83;;;28.50;95.30;;;;;;10450258;28;20205;-79
2023/08/23 11:16:22;;;;;;;6.63;5.93;;;28.40;95.20;;;;;;10449724;28;20222;-80
2023/08/23 11:21:27;;;;;;;7.63;5.23;;;28.30;94.90;;;;;;10430918;28;20233;-79
2023/08/23 11:26:29;;;;;;;7.77;5.70;;;28.20;95.10;;;;;;10449522;28;20294;-79
2023/08/23 11:31:33;;;;;;;7.43;6.70;;;28.20;94.30;;;;;;10449029;28;20225;-79
2023/08/23 11:36:37;;;;;;;7.53;6.83;;;28.10;94.50;;;;;;10439498;28;20231;-79
2023/08/23 11:41:39;;;;;;;5.50;5.20;;;28.20;94.60;;;;;;10428630;28;20237;-80
2023/08/23 11:46:42;;;;;;;6.73;6.10;;;28.20;95.50;;;;;;10448985;28;20214;-80
2023/08/23 11:51:49;;;;;;;6.27;5.77;;;28.20;96.50;;;;;;10448259;28;20202;-79
2023/08/23 11:56:51;;;;;;;6.17;5.77;;;28.10;96.20;;;;;;10448519;28;20314;-78
2023/08/23 12:01:55;;;;;;;7.40;6.23;;;28.10;95.50;;;;;;10445538;28;20221;-79
2023/08/23 12:06:57;;;;;;;6.60;6.00;;;28.10;95.90;;;;;;10455300;28;20231;-79
2023/08/23 12:11:59;;;;;;;5.80;5.40;;;28.20;96.00;;;;;;10453670;28;20198;-79
2023/08/23 12:17:02;;;;;;;6.70;6.20;;;28.20;95.60;;;;;;10453466;28;20291;-79
2023/08/23 12:22:06;;;;;;;5.43;5.13;;;28.10;95.80;;;;;;10451468;28;20260;-79
2023/08/23 12:27:08;;;;;;;5.90;5.40;;;28.10;96.30;;;;;;10448963;28;20252;-79
2023/08/23 12:32:11;;;;;;;7.07;5.43;;;28.10;95.80;;;;;;10448504;28;20201;-79
2023/08/23 12:37:13;;;;;;;5.97;5.47;;;28.10;96.00;;;;;;10448693;28;20244;-79
2023/08/23 12:42:16;;;;;;;6.10;5.70;;;28.10;95.90;;;;;;10448279;28;20225;-78
2023/08/23 12:47:20;;;;;;;6.33;5.37;;;28.10;96.40;;;;;;10429556;28;20713;-78
2023/08/23 12:52:22;;;;;;;5.60;5.17;;;28.10;95.60;;;;;;10445271;28;20279;-79
2023/08/23 12:57:24;;;;;;;6.67;5.20;;;28.20;95.60;;;;;;10445296;28;20224;-80
2023/08/23 13:02:27;;;;;;;6.50;5.90;;;28.30;96.00;;;;;;10422981;28;20260;-78
2023/08/23 13:07:29;;;;;;;6.50;5.90;;;28.20;96.40;;;;;;10441624;28;20237;-79
2023/08/23 13:12:31;;;;;;;8.40;5.73;;;28.30;95.80;;;;;;10438604;28;20841;-78
2023/08/23 13:17:35;;;;;;;5.57;5.00;;;28.30;96.10;;;;;;10445691;28;21435;-78
2023/08/23 13:22:37;;;;;;;5.57;5.00;;;28.30;95.50;;;;;;10445097;28;20225;-80
2023/08/23 13:27:39;;;;;;;6.10;5.70;;;28.40;95.70;;;;;;10445367;28;20659;-80
2023/08/23 13:32:42;;;;;;;6.10;5.50;;;28.40;95.90;;;;;;10435080;28;20198;-79
2023/08/23 13:37:45;;;;;;;8.03;5.33;;;28.50;95.20;;;;;;10452071;28;20229;-78
2023/08/23 13:42:47;;;;;;;5.93;5.43;;;28.60;95.20;;;;;;10452982;28;20320;-79
2023/08/23 13:47:50;;;;;;;5.87;5.47;;;28.70;94.80;;;;;;10454336;28;20689;-80
2023/08/23 13:52:52;;;;;;;4.83;4.43;;;28.80;95.20;;;;;;10449896;28;20197;-79
2023/08/23 13:57:54;;;;;;;6.43;5.93;;;28.90;95.10;;;;;;10449985;28;20232;-79
2023/08/23 14:02:58;;;;;;;5.30;4.80;;;29.00;94.90;;;;;;10450063;28;20600;-79
2023/08/23 14:08:00;;;;;;;7.47;5.27;;;29.00;95.50;;;;;;10453632;28;20793;-77
2023/08/23 14:13:02;;;;;;;7.30;5.30;;;29.00;94.90;;;;;;10453429;28;20198;-79
2023/08/23 14:18:06;;;;;;;5.60;5.17;;;29.00;95.30;;;;;;10454010;28;20229;-79
2023/08/23 14:23:08;;;;;;;5.63;4.50;;;29.00;95.10;;;;;;10452790;28;20217;-79
2023/08/23 14:28:11;;;;;;;4.73;4.43;;;29.10;94.20;;;;;;10452511;28;20394;-77
2023/08/23 14:33:15;;;;;;;5.37;4.90;;;29.20;93.80;;;;;;10452728;28;20229;-79
2023/08/23 14:38:18;;;;;;;6.50;4.90;;;29.20;94.30;;;;;;10434403;28;20573;-79
2023/08/23 14:43:20;;;;;;;5.53;4.97;;;29.20;93.80;;;;;;10452477;28;20314;-79
2023/08/23 14:48:24;;;;;;;4.80;4.33;;;29.10;94.20;;;;;;10452552;28;20221;-79
2023/08/23 14:53:26;;;;;;;4.70;4.30;;;29.10;93.50;;;;;;10451751;28;21621;-79
2023/08/23 14:58:28;;;;;;;7.03;4.80;;;29.00;93.10;;;;;;10435291;28;20227;-79
2023/08/23 15:03:32;;;;;;;5.90;4.60;;;29.10;92.90;;;;;;10451531;28;20233;-79
2023/08/23 15:08:35;;;;;;;5.03;4.60;;;29.10;92.10;;;;;;10451870;28;20237;-78
2023/08/23 15:13:37;;;;;;;4.37;4.07;;;29.20;92.90;;;;;;10451931;28;20796;-79
2023/08/23 15:18:40;;;;;;;6.37;4.57;;;29.20;93.40;;;;;;10452930;28;21249;-78
2023/08/23 15:23:42;;;;;;;5.07;4.57;;;29.20;92.20;;;;;;10450324;28;20232;-78
2023/08/23 15:28:44;;;;;;;4.53;4.13;;;29.10;92.20;;;;;;10448955;28;20229;-78
2023/08/23 15:33:48;;;;;;;5.10;4.63;;;29.00;91.50;;;;;;10450143;28;20197;-78
2023/08/23 15:38:50;;;;;;;5.83;4.10;;;29.00;91.50;;;;;;10451210;28;20252;-78
2023/08/23 15:43:52;;;;;;;4.40;4.00;;;29.10;91.80;;;;;;10449061;28;20839;-76
2023/08/23 15:48:55;;;;;;;4.23;3.90;;;29.20;92.00;;;;;;10450029;28;20734;-78
2023/08/23 15:53:58;;;;;;;14.17;4.27;;;29.30;90.60;;;;;;10430926;28;20201;-78
2023/08/23 15:59:00;;;;;;;5.50;3.77;;;29.20;90.90;;;;;;10445449;28;20327;-78
2023/08/23 16:04:03;;;;;;;4.27;3.87;;;29.20;89.10;;;;;;10447000;28;20225;-79
2023/08/23 16:09:05;;;;;;;3.67;3.40;;;29.10;88.50;;;;;;10456269;28;20658;-81
2023/08/23 16:14:08;;;;;;;3.80;3.50;;;29.00;88.30;;;;;;10458134;28;20201;-79
2023/08/23 16:19:11;;;;;;;5.17;4.00;;;29.00;90.70;;;;;;10452526;28;20346;-79
2023/08/23 16:24:14;;;;;;;4.73;4.33;;;28.90;85.70;;;;;;10452485;28;20724;-79
2023/08/23 16:29:16;;;;;;;4.10;3.70;;;28.90;84.90;;;;;;10453554;28;20768;-79
2023/08/23 16:34:21;;;;;;;5.83;4.10;;;28.90;85.40;;;;;;10435429;28;20978;-80
2023/08/23 16:39:23;;;;;;;3.80;3.60;;;28.90;86.40;;;;;;10435659;28;20229;-79
2023/08/23 16:44:25;;;;;;;4.20;3.80;;;28.80;86.80;;;;;;10453170;28;20229;-79
2023/08/23 16:49:28;;;;;;;4.17;3.67;;;28.70;86.90;;;;;;10433867;28;20316;-79
2023/08/23 16:54:30;;;;;;;4.77;4.10;;;28.60;87.20;;;;;;10448600;28;20213;-79
2023/08/23 16:59:33;;;;;;;8.43;4.20;;;28.50;86.90;;;;;;10451555;28;20308;-79
2023/08/23 17:04:36;;;;;;;5.33;4.50;;;28.40;88.20;;;;;;10430531;28;20221;-80
2023/08/23 17:09:42;;;;;;;4.47;4.10;;;28.40;87.10;;;;;;10502988;22;20324;-80
2023/08/23 17:14:44;;;;;;;4.93;4.63;;;28.30;87.60;;;;;;10467563;28;20197;-79
2023/08/23 17:19:47;;;;;;;5.20;4.70;;;28.20;89.60;;;;;;10481020;28;20229;-80
2023/08/23 17:24:49;;;;;;;4.87;4.50;;;28.10;88.90;;;;;;10459949;28;20213;-78
2023/08/23 17:29:52;;;;;;;5.03;4.70;;;28.00;90.80;;;;;;10454764;28;20820;-81
2023/08/23 17:34:55;;;;;;;7.70;4.57;;;27.90;91.00;;;;;;10484867;28;20208;-80
2023/08/23 17:39:57;;;;;;;4.87;4.47;;;27.70;90.40;;;;;;10464010;28;20233;-78
2023/08/23 17:45:01;;;;;;;5.07;4.67;;;27.70;90.90;;;;;;10482074;28;20236;-79
2023/08/23 17:50:05;;;;;;;5.33;4.90;;;27.60;92.70;;;;;;10475885;28;20326;-80
2023/08/23 17:55:09;;;;;;;5.07;4.60;;;27.50;91.70;;;;;;10477962;28;20723;-79
2023/08/23 18:00:12;;;;;;;5.60;5.10;;;27.40;93.40;;;;;;10461113;28;20254;-80
2023/08/23 18:05:19;;;;;;;5.10;4.70;;;27.30;95.10;;;;;;10485684;28;20244;-80
2023/08/23 18:10:21;;;;;;;5.57;5.17;;;27.20;95.70;;;;;;10483342;28;20319;-80
2023/08/23 18:15:23;;;;;;;5.03;4.63;;;27.10;95.70;;;;;;10487734;28;20202;-78
2023/08/23 18:20:27;;;;;;;6.07;5.40;;;27.00;94.90;;;;;;10483276;28;20228;-80
2023/08/23 18:25:29;;;;;;;6.00;5.57;;;26.90;95.80;;;;;;10478683;28;20225;-79
2023/08/23 18:30:32;;;;;;;6.07;5.57;;;26.80;96.70;;;;;;10481381;28;20267;-79
2023/08/23 18:35:36;;;;;;;5.73;5.27;;;26.70;95.80;;;;;;10478672;28;20201;-80
2023/08/23 18:40:38;;;;;;;5.73;5.23;;;26.60;96.50;;;;;;10459256;28;20229;-78
2023/08/23 18:45:40;;;;;;;6.50;6.00;;;26.50;96.10;;;;;;10468369;28;20229;-79
2023/08/23 18:50:43;;;;;;;5.63;5.10;;;26.50;93.00;;;;;;10485724;28;20572;-79
2023/08/23 18:55:45;;;;;;;6.37;5.87;;;26.40;92.50;;;;;;10483727;28;20229;-80
2023/08/23 19:00:48;;;;;;;7.13;5.97;;;26.40;92.90;;;;;;10483566;28;20239;-80
2023/08/23 19:05:52;;;;;;;5.17;4.77;;;26.30;92.90;;;;;;10481436;28;20225;-79
2023/08/23 19:10:54;;;;;;;4.93;4.50;;;26.30;92.90;;;;;;10477809;28;20213;-80
2023/08/23 19:15:56;;;;;;;6.30;4.80;;;26.20;92.90;;;;;;10488263;28;20233;-79
2023/08/23 19:21:02;;;;;;;11.67;5.53;;;26.10;92.80;;;;;;10485461;28;20197;-81
2023/08/23 19:26:04;;;;;;;5.57;4.90;;;26.00;92.30;;;;;;10478664;28;20213;-80
2023/08/23 19:31:06;;;;;;;6.07;4.80;;;25.90;93.00;;;;;;10461857;28;20515;-80
2023/08/23 19:36:09;;;;;;;5.87;5.20;;;25.80;92.50;;;;;;10478670;28;20232;-80
2023/08/23 19:41:11;;;;;;;5.20;4.70;;;25.80;93.00;;;;;;10479124;28;20328;-80
2023/08/23 19:46:14;;;;;;;8.60;6.80;;;25.70;93.10;;;;;;10452754;28;20592;-79
2023/08/23 19:51:17;;;;;;;5.63;4.97;;;25.70;93.30;;;;;;10475266;28;20202;-79
2023/08/23 19:56:19;;;;;;;6.20;5.73;;;25.60;93.20;;;;;;10478976;28;20298;-80
2023/08/23 20:01:22;;;;;;;10.20;5.10;;;25.60;93.20;;;;;;10462166;28;20201;-80
2023/08/23 20:06:25;;;;;;;6.97;5.40;;;25.50;93.30;;;;;;10457619;28;20225;-79
2023/08/23 20:11:27;;;;;;;6.50;5.70;;;25.40;93.50;;;;;;10481531;28;20205;-80
2023/08/23 20:16:29;;;;;;;6.07;4.90;;;25.40;93.20;;;;;;10480535;28;20313;-80
2023/08/23 20:21:37;;;;;;;5.90;5.30;;;25.30;93.70;;;;;;10454754;28;20204;-79
2023/08/23 20:26:39;;;;;;;6.70;4.93;;;25.30;93.70;;;;;;10468477;28;20279;-80
2023/08/23 20:31:43;;;;;;;6.33;5.80;;;25.20;93.60;;;;;;10468920;28;20206;-78
2023/08/23 20:36:47;;;;;;;5.17;4.70;;;25.20;93.80;;;;;;10478082;28;20233;-79
2023/08/23 20:41:52;;;;;;;5.40;4.90;;;25.10;93.60;;;;;;10477173;28;20207;-79
2023/08/23 20:46:54;;;;;;;6.07;5.47;;;25.10;94.10;;;;;;10456410;28;20232;-79
2023/08/23 20:51:57;;;;;;;7.13;5.10;;;25.00;93.90;;;;;;10472968;28;20244;-79
2023/08/23 20:56:59;;;;;;;6.73;5.10;;;25.00;93.90;;;;;;10471018;28;20616;-78
2023/08/23 21:02:02;;;;;;;4.93;4.50;;;24.90;93.90;;;;;;10480143;28;20312;-79
2023/08/23 21:07:06;;;;;;;5.60;5.20;;;24.80;93.90;;;;;;10472248;28;20233;-80
2023/08/23 21:12:08;;;;;;;6.13;5.00;;;24.80;94.30;;;;;;10450297;28;20205;-79
2023/08/23 21:17:10;;;;;;;5.10;4.67;;;24.80;94.40;;;;;;10478513;28;20275;-80
2023/08/23 21:22:14;;;;;;;4.97;4.57;;;24.80;94.40;;;;;;10478475;28;20248;-79
2023/08/23 21:27:16;;;;;;;4.87;4.47;;;24.70;94.30;;;;;;10451447;28;20643;-80
2023/08/23 21:32:18;;;;;;;5.40;4.60;;;24.70;94.30;;;;;;10459390;28;20197;-80
2023/08/23 21:37:22;;;;;;;4.80;4.40;;;24.70;95.40;;;;;;10479404;28;20311;-79
2023/08/23 21:42:49;;;;;;;5.00;4.60;;;24.70;95.10;;;;;;10474551;28;20312;-80
2023/08/23 21:47:51;;;;;;;7.70;5.10;;;24.60;95.10;;;;;;10433201;28;21640;-80
2023/08/23 21:52:54;;;;;;;5.97;4.80;;;24.60;95.00;;;;;;10476249;28;20194;-78
2023/08/23 21:57:57;;;;;;;6.83;5.40;;;24.50;94.80;;;;;;10467671;28;20248;-78
2023/08/23 22:02:59;;;;;;;5.40;4.90;;;24.50;95.00;;;;;;10481681;28;20311;-79
2023/08/23 22:08:02;;;;;;;6.13;5.50;;;24.50;95.50;;;;;;10474630;28;20279;-78
2023/08/23 22:13:05;;;;;;;5.10;4.70;;;24.50;95.70;;;;;;10467616;28;20243;-78
2023/08/23 22:18:09;;;;;;;8.27;5.33;;;24.40;96.10;;;;;;10453248;28;20712;-78
2023/08/23 22:23:13;;;;;;;5.40;5.00;;;24.40;95.70;;;;;;10448792;28;20232;-78
2023/08/23 22:28:15;;;;;;;5.20;4.83;;;24.30;95.60;;;;;;10454592;28;21295;-78
2023/08/23 22:33:17;;;;;;;4.50;4.20;;;24.30;95.80;;;;;;10472871;28;20291;-79
2023/08/23 22:38:20;;;;;;;6.90;5.20;;;24.30;95.80;;;;;;10470026;28;20255;-80
2023/08/23 22:43:23;;;;;;;4.60;4.20;;;24.30;95.80;;;;;;10450726;28;20327;-79
2023/08/23 22:48:25;;;;;;;5.50;4.70;;;24.20;95.70;;;;;;10471439;28;20220;-78
2023/08/23 22:53:30;;;;;;;5.10;4.70;;;24.20;95.50;;;;;;10468306;28;20282;-79
2023/08/23 22:58:32;;;;;;;4.60;4.20;;;24.10;95.80;;;;;;10451544;28;20212;-78
2023/08/23 23:03:34;;;;;;;6.17;4.73;;;24.10;95.70;;;;;;10456251;28;20316;-80
2023/08/23 23:08:38;;;;;;;5.80;4.73;;;24.00;95.90;;;;;;10488191;22;20261;-79
2023/08/23 23:13:40;;;;;;;4.93;4.60;;;24.00;95.50;;;;;;10444246;28;20284;-79
2023/08/23 23:18:43;;;;;;;8.63;5.53;;;23.90;95.80;;;;;;10441077;28;20233;-79
2023/08/23 23:23:46;;;;;;;5.50;5.10;;;23.90;96.10;;;;;;10433885;28;20229;-79
2023/08/23 23:28:48;;;;;;;6.27;5.77;;;23.90;96.10;;;;;;10414829;28;20221;-80
2023/08/23 23:33:50;;;;;;;6.23;5.70;;;23.80;96.30;;;;;;10427406;28;20198;-79
2023/08/23 23:38:54;;;;;;;5.47;5.07;;;23.80;96.10;;;;;;10410439;28;20296;-79
2023/08/23 23:43:56;;;;;;;7.20;6.37;;;23.80;96.50;;;;;;10433498;28;20299;-79
2023/08/23 23:48:58;;;;;;;7.00;5.20;;;23.70;96.10;;;;;;10414098;28;20808;-79
2023/08/23 23:54:01;;;;;;;9.03;5.60;;;23.70;96.60;;;;;;10425614;28;21231;-79
2023/08/23 23:59:03;;;;;;;6.10;5.50;;;23.60;96.70;;;;;;10405365;28;21051;-79
